• Join FlightAware (Why Join?)
  • Login
  • US Flag 
06:44AM EDT


 

Airport Tracker/Info


-or-


 

Live Flight TrackerFlight Track Log ✈ N779NC ✈ 07-Jul-2013 ✈ KBTR - KATL

Flight Track Log - Related Links

Times and Time Zones

All times are in EDT time to prevent confusion due to time zone crossing. See the N779NC flight status page for this flight to view local times or setup timezone preferences in your user account.

Time Position Orientation Groundspeed Altitude Reporting Facility
EDT Latitude Longitude Course Direction KTS MPH feet Rate Location/Type
06:08PM 30.4647 -91.2139 80° East 244 281 3,000  Level Houston Center
06:09PM 30.4289 -91.1567 126° Southeast 243 280 4,600 1,740 Climbing Houston Center
06:10PM 30.4611 -91.0786 64° Northeast 265 305 6,600 2,040 Climbing Houston Center
06:11PM 30.7119 -90.5702 65° Northeast  Level FlightAware Approximate
06:11PM 30.4947 -90.9978 64° Northeast 277 319 8,900  Level Houston Center
06:12PM 30.7536 -90.4585 81° East  Level FlightAware Approximate
06:12PM 30.5411 -90.8994 61° Northeast 290 334 10,800  Level Houston Center
06:13PM 30.7711 -90.3358 80° East  Level FlightAware Approximate
06:13PM 30.5781 -90.7986 67° East 335 386 11,900  Level Houston Center
06:14PM 30.6019 -90.6872 76° East 355 409 14,000 1,800 Climbing Houston Center
06:15PM 30.6250 -90.5744 77° East 359 413 15,700 1,620 Climbing Houston Center
06:16PM 30.6497 -90.4578 76° East 368 423 17,400 1,560 Climbing Houston Center
06:18PM 30.6747 -90.3392 76° East 377 434 19,000 1,440 Climbing Houston Center
06:19PM 30.7019 -90.2183 75° East 385 443 20,400 1,320 Climbing Houston Center
06:20PM 30.7439 -90.0722 71° East 394 453 21,800 1,260 Climbing Houston Center
06:21PM 30.7811 -89.9464 71° East 406 467 23,100 1,380 Climbing Houston Center
06:22PM 30.8339 -89.8308 62° Northeast 408 470 24,700 1,260 Climbing Houston Center
06:23PM 30.8922 -89.7231 58° Northeast 397 457 25,800 960 Climbing Houston Center
06:24PM 30.9475 -89.6069 61° Northeast 404 465 26,700 900 Climbing Houston Center
06:25PM 31.0058 -89.4917 59° Northeast 409 471 27,700 720 Climbing Houston Center
06:26PM 31.0658 -89.3775 58° Northeast 413 475 28,300 600 Climbing Houston Center
06:27PM 31.1328 -89.2322 62° Northeast 420 483 29,000 240 Climbing Houston Center
06:28PM 31.1961 -89.1081 59° Northeast 438 504 28,900  Descending Houston Center
06:29PM 31.2650 -88.9653 61° Northeast 465 535 29,000  Climbing Houston Center
06:30PM 31.3314 -88.8294 60° Northeast 476 548 29,000  Level Houston Center
06:31PM 31.4031 -88.6919 59° Northeast 487 560 29,000  Level Houston Center
06:32PM 31.4753 -88.5558 58° Northeast 489 563 29,000  Level Houston Center
06:33PM 31.5475 -88.4231 57° Northeast 482 555 29,000  Level Houston Center
06:34PM 31.6186 -88.2872 58° Northeast 483 556 29,000  Level Houston Center
06:35PM 31.6906 -88.1506 58° Northeast 488 562 29,000  Level Houston Center
06:36PM 31.7606 -88.0131 59° Northeast 488 562 29,000  Level Houston Center
06:37PM 31.8472 -87.8525 58° Northeast 485 558 29,000  Level Houston Center
06:38PM 31.9211 -87.7161 57° Northeast 491 565 29,000  Level Houston Center
06:39PM 31.9936 -87.5847 57° Northeast 484 557 29,000  Level Houston Center
06:40PM 32.0636 -87.4569 57° Northeast 469 540 29,000  Level Houston Center
06:41PM 32.1311 -87.3222 59° Northeast 472 543 29,000  Level Houston Center
06:42PM 32.1861 -87.1736 66° East 485 558 29,000  Level Houston Center
06:43PM 32.2578 -87.0083 63° Northeast 471 542 29,000  Level Atlanta Center
06:44PM 32.3175 -86.8678 63° Northeast 477 549 29,000 -600 Level Atlanta Center
06:45PM 32.3728 -86.7269 65° Northeast 477 549 27,800 -1,440 Descending Atlanta Center
06:46PM 32.4319 -86.5958 62° Northeast 463 533 26,200 -1,200 Descending Atlanta Center
06:47PM 32.4828 -86.4569 67° East 458 527 25,400 -540 Descending Atlanta Center
06:48PM 32.5314 -86.3128 68° East 463 533 25,200 -240 Descending Atlanta Center
06:49PM 32.5839 -86.1811 65° Northeast 456 525 25,000 -120 Descending Atlanta Center
06:50PM 32.6361 -86.0417 66° East 450 518 25,000 -300 Level Atlanta Center
06:51PM 32.6883 -85.9097 65° Northeast 455 524 24,400 -480 Descending Atlanta Center
06:52PM 32.7569 -85.7875 56° Northeast 444 511 24,100 -300 Descending Atlanta Center
06:53PM 32.8214 -85.6603 59° Northeast 444 511 23,800 -1,560 Descending Atlanta Center
06:54PM 32.8917 -85.5428 55° Northeast 444 511 21,000 -2,700 Descending Atlanta Center
06:55PM 32.9597 -85.4303 54° Northeast 432 497 18,500 -2,460 Descending Atlanta Center
06:56PM 33.0156 -85.3047 62° Northeast 419 482 16,100 -1,920 Descending Atlanta Center
06:57PM 33.0667 -85.1864 63° Northeast 407 468 14,700 -1,080 Descending Atlanta Center
06:58PM 33.1469 -85.0983 43° Northeast 361 415 14,000 -360 Descending Atlanta Center
06:59PM 33.2100 -85.0219 45° Northeast 337 388 14,000  Level Atlanta Center
07:00PM 33.2733 -84.9383 48° Northeast 326 375 14,000 -600 Level Atlanta Center
07:01PM 33.3322 -84.8594 48° Northeast 326 375 12,900 -900 Descending Atlanta Center
07:02PM 33.3933 -84.7828 46° Northeast 314 361 12,200 -480 Descending Atlanta Center
07:03PM 33.4503 -84.7061 48° Northeast 314 361 12,000 -120 Descending Atlanta Center
07:04PM 33.5006 -84.6292 52° Northeast 306 352 12,000 -180 Level Atlanta Center
07:05PM 33.5364 -84.5522 61° Northeast 275 316 11,700 -960 Descending Atlanta Center
07:06PM 33.5431 -84.4675 85° East 254 292 10,100 -1,740 Descending Atlanta Center
07:08PM 33.5500 -84.3333 86° East 238 274 7,300 -1,920 Descending Atlanta TRACON
07:09PM 33.5667 -84.2500 76° East 239 275 5,200 -2,100 Descending Atlanta TRACON